createdAt,value
2023-01-29T00:00:18.466Z,46.70
2023-01-29T00:02:45.207Z,48.05
2023-01-29T00:05:26.542Z,51.65
2023-01-29T00:07:54.346Z,47.70
2023-01-29T00:10:20.788Z,48.50
2023-01-29T00:12:47.210Z,48.92
2023-01-29T00:15:13.747Z,49.05
2023-01-29T00:17:40.209Z,49.33
2023-01-29T00:20:06.823Z,49.45
2023-01-29T00:22:33.226Z,48.47
2023-01-29T00:24:59.885Z,47.95
2023-01-29T00:27:26.364Z,46.88
2023-01-29T00:30:09.628Z,48.35
2023-01-29T00:32:36.312Z,49.33
2023-01-29T00:35:03.033Z,48.17
2023-01-29T00:37:29.669Z,49.17
2023-01-29T00:39:56.260Z,49.28
2023-01-29T00:42:41.188Z,47.90
2023-01-29T00:45:07.919Z,46.38
2023-01-29T00:47:34.509Z,48.40
2023-01-29T00:50:05.443Z,47.03
2023-01-29T00:52:31.990Z,38.30
2023-01-29T00:54:59.661Z,49.65
2023-01-29T00:57:27.433Z,48.88
2023-01-29T00:59:54.243Z,46.22
2023-01-29T01:02:39.394Z,46.80
2023-01-29T01:05:07.808Z,49.45
2023-01-29T01:07:34.411Z,48.17
2023-01-29T01:10:19.264Z,47.88
2023-01-29T01:12:45.810Z,49.72
2023-01-29T01:15:12.272Z,45.60
2023-01-29T01:17:38.751Z,48.30
2023-01-29T01:20:05.328Z,47.42
2023-01-29T01:22:32.055Z,48.55
2023-01-29T01:24:58.610Z,46.67
2023-01-29T01:27:25.735Z,48.72
2023-01-29T01:29:52.222Z,47.90
2023-01-29T01:32:18.870Z,49.28
2023-01-29T01:34:45.419Z,47.38
2023-01-29T01:37:12.004Z,48.65
2023-01-29T01:39:38.564Z,46.38
2023-01-29T01:42:06.351Z,47.47
2023-01-29T01:44:51.532Z,45.17
2023-01-29T01:47:19.690Z,45.90
2023-01-29T01:49:47.336Z,48.55
2023-01-29T01:52:16.464Z,46.85
2023-01-29T01:54:43.878Z,48.47
2023-01-29T01:57:16.483Z,45.08
2023-01-29T01:59:50.462Z,45.42
2023-01-29T02:02:36.155Z,49.10
2023-01-29T02:05:21.058Z,46.72
2023-01-29T02:08:08.113Z,47.65
2023-01-29T02:10:45.427Z,47.97
2023-01-29T02:13:12.779Z,47.80
2023-01-29T02:15:41.944Z,49.53
2023-01-29T02:18:09.184Z,49.25
2023-01-29T02:20:35.806Z,47.33
2023-01-29T02:23:23.379Z,46.67
2023-01-29T02:25:52.690Z,48.65
2023-01-29T02:28:24.220Z,48.10
2023-01-29T02:31:04.018Z,48.35
2023-01-29T02:33:42.669Z,47.45
2023-01-29T02:36:32.200Z,44.47
2023-01-29T02:38:58.694Z,47.10
2023-01-29T02:41:57.514Z,47.47
2023-01-29T02:44:34.139Z,47.83
2023-01-29T02:47:02.812Z,46.65
2023-01-29T02:49:33.800Z,45.13
2023-01-29T02:52:22.016Z,48.20
2023-01-29T02:54:51.155Z,46.88
2023-01-29T02:57:22.831Z,49.67
2023-01-29T02:59:55.001Z,48.97
2023-01-29T03:02:27.175Z,49.85
2023-01-29T03:04:58.521Z,44.75
2023-01-29T03:07:46.276Z,48.42
2023-01-29T03:10:24.768Z,47.97
2023-01-29T03:13:13.610Z,49.92
2023-01-29T03:15:42.558Z,44.15
2023-01-29T03:18:11.451Z,49.03
2023-01-29T03:20:48.181Z,47.45
2023-01-29T03:23:18.032Z,46.50
2023-01-29T03:26:03.865Z,47.63
2023-01-29T03:28:48.772Z,49.25
2023-01-29T03:31:35.742Z,49.67
2023-01-29T03:34:07.448Z,45.28
2023-01-29T03:36:38.264Z,47.47
2023-01-29T03:39:06.298Z,46.33
2023-01-29T03:41:34.838Z,45.45
2023-01-29T03:44:04.095Z,47.28
2023-01-29T03:46:41.791Z,46.72
2023-01-29T03:49:08.421Z,44.60
2023-01-29T03:51:35.164Z,46.65
2023-01-29T03:54:18.379Z,45.83
2023-01-29T03:56:57.331Z,45.30
2023-01-29T03:59:35.730Z,45.58
2023-01-29T04:02:10.308Z,44.80
2023-01-29T04:04:37.995Z,45.92
2023-01-29T04:07:09.108Z,45.22
2023-01-29T04:09:42.225Z,45.78
2023-01-29T04:12:10.016Z,45.38
2023-01-29T04:14:37.272Z,44.58
2023-01-29T04:17:08.106Z,45.55
2023-01-29T04:19:35.108Z,32.93
2023-01-29T04:22:11.831Z,43.70
2023-01-29T04:24:38.349Z,42.75
2023-01-29T04:27:21.219Z,44.70
2023-01-29T04:29:47.733Z,43.70
2023-01-29T04:32:27.136Z,43.38
2023-01-29T04:34:56.504Z,42.13
2023-01-29T04:37:27.168Z,44.13
2023-01-29T04:40:03.652Z,43.72
2023-01-29T04:42:31.583Z,43.65
2023-01-29T04:45:00.824Z,46.05
2023-01-29T04:47:33.229Z,42.30
2023-01-29T04:50:10.340Z,47.72
2023-01-29T04:52:39.799Z,42.75
2023-01-29T04:55:10.806Z,43.97
2023-01-29T04:57:46.343Z,36.03
2023-01-29T05:00:42.734Z,45.65
2023-01-29T05:03:11.632Z,45.05
2023-01-29T05:05:40.816Z,46.28
2023-01-29T05:08:08.252Z,47.05
2023-01-29T05:10:35.200Z,44.80
2023-01-29T05:13:03.416Z,47.50
2023-01-29T05:15:47.874Z,44.97
2023-01-29T05:18:14.507Z,43.35
2023-01-29T05:20:42.406Z,43.83
2023-01-29T05:23:18.995Z,44.53
2023-01-29T05:25:45.709Z,46.95
2023-01-29T05:28:16.612Z,44.10
2023-01-29T05:30:44.493Z,32.17
2023-01-29T05:33:19.880Z,41.53
2023-01-29T05:35:47.093Z,43.47
2023-01-29T05:38:13.730Z,43.38
2023-01-29T05:40:40.254Z,43.17
2023-01-29T05:43:13.059Z,42.08
2023-01-29T05:45:39.557Z,45.03
2023-01-29T05:48:06.006Z,44.50
2023-01-29T05:50:32.500Z,44.17
2023-01-29T05:52:59.686Z,43.22
2023-01-29T05:55:26.751Z,44.55
2023-01-29T05:57:53.439Z,43.05
2023-01-29T06:00:19.963Z,43.90
2023-01-29T06:02:46.552Z,43.65
2023-01-29T06:05:13.049Z,43.15
2023-01-29T06:07:41.742Z,41.45
2023-01-29T06:10:10.471Z,41.88
2023-01-29T06:12:36.863Z,42.17
2023-01-29T06:15:03.442Z,41.13
2023-01-29T06:17:29.871Z,39.97
2023-01-29T06:19:56.321Z,42.90
2023-01-29T06:22:22.839Z,41.38
2023-01-29T06:24:49.364Z,40.28
2023-01-29T06:27:15.823Z,41.70
2023-01-29T06:29:42.370Z,41.80
2023-01-29T06:32:08.947Z,40.28
2023-01-29T06:34:35.432Z,41.60
2023-01-29T06:37:02.128Z,40.50
2023-01-29T06:39:28.643Z,41.45
2023-01-29T06:41:55.047Z,39.38
2023-01-29T06:44:21.497Z,40.63
2023-01-29T06:46:47.961Z,41.13
2023-01-29T06:49:14.469Z,40.75
2023-01-29T06:51:40.977Z,41.05
2023-01-29T06:54:08.491Z,41.50
2023-01-29T06:56:35.039Z,39.22
2023-01-29T06:59:01.569Z,40.28
2023-01-29T07:01:36.000Z,40.72
2023-01-29T07:04:03.422Z,39.72
2023-01-29T07:06:30.181Z,38.65
2023-01-29T07:08:56.887Z,40.35
2023-01-29T07:11:23.398Z,40.17
2023-01-29T07:13:49.889Z,40.00
2023-01-29T07:16:16.414Z,39.47
2023-01-29T07:18:42.866Z,40.83
2023-01-29T07:21:09.283Z,38.67
2023-01-29T07:23:35.751Z,42.65
2023-01-29T07:26:03.371Z,39.38
2023-01-29T07:28:30.064Z,39.85
2023-01-29T07:30:59.479Z,40.20
2023-01-29T07:33:26.531Z,38.17
2023-01-29T07:35:53.325Z,39.88
2023-01-29T07:38:19.795Z,40.28
2023-01-29T07:40:47.082Z,38.60
2023-01-29T07:43:13.638Z,37.38
2023-01-29T07:45:40.460Z,38.45
2023-01-29T07:48:07.857Z,36.85
2023-01-29T07:50:35.135Z,40.83
2023-01-29T07:53:01.611Z,40.22
2023-01-29T07:55:28.090Z,39.38
2023-01-29T07:57:57.366Z,35.55
2023-01-29T08:00:24.102Z,36.15
2023-01-29T08:03:28.812Z,36.75
2023-01-29T08:05:55.338Z,37.00
2023-01-29T08:08:21.839Z,32.83
2023-01-29T08:10:48.348Z,33.33
2023-01-29T08:13:14.852Z,35.42
2023-01-29T08:15:47.337Z,35.85
2023-01-29T08:18:14.660Z,34.50
2023-01-29T08:20:41.216Z,30.75
2023-01-29T08:23:10.345Z,34.08
2023-01-29T08:25:37.040Z,33.38
2023-01-29T08:28:03.959Z,33.67
2023-01-29T08:30:31.572Z,30.92
2023-01-29T08:32:58.356Z,34.33
2023-01-29T08:35:24.980Z,33.30
2023-01-29T08:37:55.225Z,33.25
2023-01-29T08:40:21.861Z,33.03
2023-01-29T08:42:48.430Z,32.63
2023-01-29T08:45:14.985Z,35.55
2023-01-29T08:47:48.324Z,32.90
2023-01-29T08:50:15.715Z,32.80
2023-01-29T08:52:42.978Z,32.00
2023-01-29T08:55:10.010Z,35.08
2023-01-29T08:57:37.120Z,31.95
2023-01-29T09:00:03.972Z,34.17
2023-01-29T09:02:30.513Z,34.53
2023-01-29T09:04:57.312Z,37.50
2023-01-29T09:07:23.892Z,47.97
2023-01-29T09:09:50.359Z,33.78
2023-01-29T09:12:17.002Z,33.90
2023-01-29T09:14:43.439Z,32.30
2023-01-29T09:17:09.859Z,33.00
2023-01-29T09:19:36.323Z,31.02
2023-01-29T09:22:02.809Z,30.48
2023-01-29T09:24:30.028Z,31.48
2023-01-29T09:26:56.500Z,33.15
2023-01-29T09:29:23.027Z,29.27
2023-01-29T09:31:49.673Z,29.70
2023-01-29T09:34:16.359Z,27.15
2023-01-29T09:36:42.982Z,29.50
2023-01-29T09:39:09.526Z,28.65
2023-01-29T09:41:35.949Z,27.83
2023-01-29T09:44:03.937Z,28.73
2023-01-29T09:46:44.497Z,29.05
2023-01-29T09:49:26.589Z,29.73
2023-01-29T09:51:57.542Z,27.00
2023-01-29T09:54:34.074Z,29.60
2023-01-29T09:57:00.810Z,26.27
2023-01-29T09:59:29.850Z,26.73
2023-01-29T10:01:59.192Z,27.15
2023-01-29T10:04:28.568Z,29.08
2023-01-29T10:07:00.440Z,27.15
2023-01-29T10:11:53.237Z,24.80
2023-01-29T10:14:22.850Z,26.38
2023-01-29T10:17:13.686Z,25.25
2023-01-29T10:19:58.351Z,26.90
2023-01-29T10:22:27.759Z,54.03
2023-01-29T10:24:57.678Z,28.23
2023-01-29T10:27:27.508Z,26.25
2023-01-29T10:29:55.362Z,25.63
2023-01-29T10:32:23.757Z,27.45
2023-01-29T10:34:54.714Z,30.90
2023-01-29T10:37:24.367Z,28.10
2023-01-29T10:39:51.105Z,26.13
2023-01-29T10:42:19.209Z,27.23
2023-01-29T10:45:00.663Z,29.30
2023-01-29T10:47:53.282Z,34.08
2023-01-29T10:50:34.479Z,29.17
2023-01-29T10:53:16.129Z,28.10
2023-01-29T10:56:02.530Z,34.35
2023-01-29T10:58:34.768Z,32.40
2023-01-29T11:01:01.425Z,28.17
2023-01-29T11:03:29.610Z,26.17
2023-01-29T11:06:03.014Z,27.83
2023-01-29T11:08:33.144Z,28.02
2023-01-29T11:11:05.252Z,28.27
2023-01-29T11:13:34.927Z,28.00
2023-01-29T11:16:01.610Z,26.63
2023-01-29T11:18:48.374Z,25.52
2023-01-29T11:21:15.696Z,26.60
2023-01-29T11:23:42.120Z,29.08
2023-01-29T11:26:11.112Z,27.95
2023-01-29T11:28:41.566Z,24.42
2023-01-29T11:31:28.019Z,27.92
2023-01-29T11:34:03.304Z,27.30
2023-01-29T11:36:32.965Z,25.38
2023-01-29T11:39:09.176Z,23.17
2023-01-29T11:41:43.013Z,26.92
2023-01-29T11:44:41.685Z,29.17
2023-01-29T11:47:29.500Z,24.33
2023-01-29T11:49:56.979Z,23.88
2023-01-29T11:52:33.949Z,24.50
2023-01-29T11:55:03.114Z,24.85
2023-01-29T11:57:35.595Z,24.65
2023-01-29T12:00:19.528Z,22.33
2023-01-29T12:02:48.312Z,20.73
2023-01-29T12:05:16.934Z,20.98
2023-01-29T12:07:44.339Z,21.95
2023-01-29T12:10:29.185Z,24.02
2023-01-29T12:13:04.186Z,19.65
2023-01-29T12:15:30.665Z,18.38
2023-01-29T12:18:03.969Z,21.55
2023-01-29T12:20:42.416Z,21.75
2023-01-29T12:23:32.373Z,19.85
2023-01-29T12:26:01.693Z,20.83
2023-01-29T12:28:45.127Z,21.55
2023-01-29T12:31:11.628Z,23.13
2023-01-29T12:33:51.498Z,19.33
2023-01-29T12:36:25.062Z,22.27
2023-01-29T12:38:51.834Z,50.08
2023-01-29T12:41:34.231Z,19.60
2023-01-29T12:44:19.470Z,21.23
2023-01-29T12:46:54.505Z,21.30
2023-01-29T12:49:26.137Z,21.00
2023-01-29T12:51:56.759Z,23.73
2023-01-29T12:54:27.643Z,22.98
2023-01-29T12:56:56.836Z,16.63
2023-01-29T12:59:29.462Z,21.58
2023-01-29T13:01:58.490Z,19.45
2023-01-29T13:04:28.064Z,21.75
2023-01-29T13:06:56.439Z,20.73
2023-01-29T13:09:27.041Z,19.52
2023-01-29T13:11:55.779Z,19.05
2023-01-29T13:14:24.181Z,36.58
2023-01-29T13:16:55.618Z,24.02
2023-01-29T13:19:24.383Z,18.67
2023-01-29T13:21:51.891Z,19.95
2023-01-29T13:24:20.236Z,20.45
2023-01-29T13:26:47.653Z,20.95
2023-01-29T13:29:24.498Z,20.50
2023-01-29T13:31:52.919Z,21.17
2023-01-29T13:34:24.803Z,22.30
2023-01-29T13:39:20.877Z,20.40
2023-01-29T13:41:47.405Z,21.15
2023-01-29T13:44:25.003Z,20.30
2023-01-29T13:47:29.168Z,17.65
2023-01-29T13:50:09.675Z,18.30
2023-01-29T13:52:47.009Z,17.33
2023-01-29T13:55:13.479Z,18.60
2023-01-29T13:57:49.347Z,19.60
2023-01-29T14:00:22.017Z,18.48
2023-01-29T14:03:14.261Z,20.10
2023-01-29T14:05:41.402Z,17.60
2023-01-29T14:08:13.937Z,18.75
2023-01-29T14:10:41.447Z,16.60
2023-01-29T14:13:21.324Z,18.23
2023-01-29T14:15:56.887Z,17.08
2023-01-29T14:18:26.848Z,18.58
2023-01-29T14:20:56.100Z,19.00
2023-01-29T14:23:49.447Z,18.55
2023-01-29T14:26:25.350Z,19.48
2023-01-29T14:28:53.245Z,18.13
2023-01-29T14:31:38.438Z,18.48
2023-01-29T14:34:07.149Z,19.10
2023-01-29T14:36:41.362Z,16.73
2023-01-29T14:39:19.112Z,18.27
2023-01-29T14:41:45.597Z,17.27
2023-01-29T14:44:30.982Z,17.35
2023-01-29T14:46:57.425Z,19.58
2023-01-29T14:49:50.382Z,19.23
2023-01-29T14:52:17.672Z,18.73
2023-01-29T14:54:46.197Z,18.65
2023-01-29T14:57:13.450Z,18.08
2023-01-29T15:00:00.360Z,16.42
2023-01-29T15:05:59.535Z,17.23
2023-01-29T15:08:47.754Z,17.77
2023-01-29T15:11:36.152Z,16.35
2023-01-29T15:14:02.745Z,18.23
2023-01-29T15:16:42.241Z,17.77
2023-01-29T15:19:14.449Z,22.63
2023-01-29T15:22:00.810Z,20.42
2023-01-29T15:24:27.283Z,19.92
2023-01-29T15:26:53.898Z,18.42
2023-01-29T15:29:23.212Z,19.23
2023-01-29T15:31:49.829Z,17.60
2023-01-29T15:34:16.554Z,16.20
2023-01-29T15:36:43.111Z,17.40
2023-01-29T15:39:09.579Z,19.40
2023-01-29T15:41:36.218Z,19.17
2023-01-29T15:44:02.719Z,18.52
2023-01-29T15:46:30.582Z,18.15
2023-01-29T15:48:57.836Z,18.95
2023-01-29T15:51:25.244Z,20.92
2023-01-29T15:53:59.859Z,20.98
2023-01-29T15:56:31.144Z,21.20
2023-01-29T15:58:59.093Z,20.17
2023-01-29T16:01:28.958Z,26.85
2023-01-29T16:03:59.312Z,20.55
2023-01-29T16:06:26.139Z,27.48
2023-01-29T16:08:54.289Z,28.20
2023-01-29T16:11:21.283Z,24.73
2023-01-29T16:13:49.165Z,26.02
2023-01-29T16:16:15.809Z,25.25
2023-01-29T16:18:58.928Z,24.23
2023-01-29T16:21:29.330Z,22.67
2023-01-29T16:23:58.228Z,23.80
2023-01-29T16:26:25.677Z,21.52
2023-01-29T16:28:52.239Z,22.95
2023-01-29T16:31:27.418Z,22.40
2023-01-29T16:33:54.196Z,20.42
2023-01-29T16:36:21.737Z,22.77
2023-01-29T16:38:54.219Z,24.35
2023-01-29T16:41:26.352Z,29.35
2023-01-29T16:43:54.687Z,24.75
2023-01-29T16:46:32.227Z,25.17
2023-01-29T16:48:58.745Z,22.45
2023-01-29T16:51:29.776Z,21.98
2023-01-29T16:53:59.330Z,22.45
2023-01-29T16:56:26.860Z,21.35
2023-01-29T16:58:54.005Z,47.15
2023-01-29T17:01:20.658Z,41.38
2023-01-29T17:03:51.522Z,32.13
2023-01-29T17:06:25.344Z,27.77
2023-01-29T17:08:52.197Z,29.67
2023-01-29T17:11:31.758Z,29.70
2023-01-29T17:13:58.362Z,32.03
2023-01-29T17:16:30.341Z,33.75
2023-01-29T17:18:56.955Z,30.77
2023-01-29T17:21:23.707Z,36.05
2023-01-29T17:23:50.591Z,41.53
2023-01-29T17:26:17.570Z,34.58
2023-01-29T17:28:44.640Z,34.15
2023-01-29T17:31:11.351Z,34.10
2023-01-29T17:33:41.136Z,33.05
2023-01-29T17:36:14.386Z,33.28
2023-01-29T17:38:41.364Z,32.92
2023-01-29T17:41:22.815Z,31.27
2023-01-29T17:43:49.255Z,25.98
2023-01-29T17:46:16.448Z,32.55
2023-01-29T17:48:50.153Z,32.83
2023-01-29T17:51:17.330Z,38.13
2023-01-29T17:53:46.202Z,34.20
2023-01-29T17:56:39.561Z,32.92
2023-01-29T17:59:13.344Z,33.13
2023-01-29T18:01:39.924Z,31.98
2023-01-29T18:04:06.502Z,36.47
2023-01-29T18:06:33.082Z,42.53
2023-01-29T18:08:59.597Z,33.45
2023-01-29T18:11:26.187Z,35.60
2023-01-29T18:13:52.730Z,36.28
2023-01-29T18:16:21.995Z,38.17
2023-01-29T18:18:48.850Z,38.20
2023-01-29T18:21:15.307Z,36.28
2023-01-29T18:23:41.756Z,38.05
2023-01-29T18:26:10.878Z,41.83
2023-01-29T18:28:37.499Z,41.55
2023-01-29T18:31:04.527Z,40.50
2023-01-29T18:33:31.468Z,39.97
2023-01-29T18:35:58.507Z,38.25
2023-01-29T18:38:24.947Z,36.78
2023-01-29T18:40:51.381Z,34.22
2023-01-29T18:43:17.800Z,35.95
2023-01-29T18:45:44.407Z,32.92
2023-01-29T18:48:10.981Z,32.42
2023-01-29T18:50:37.515Z,29.45
2023-01-29T18:53:04.447Z,30.15
2023-01-29T18:55:31.022Z,27.33
2023-01-29T18:58:26.223Z,28.33
2023-01-29T19:00:44.020Z,27.30
2023-01-29T19:03:10.767Z,26.45
2023-01-29T19:05:37.391Z,27.15
2023-01-29T19:08:05.343Z,26.27
2023-01-29T19:10:32.113Z,26.02
2023-01-29T19:12:58.725Z,25.80
2023-01-29T19:15:25.227Z,28.17
2023-01-29T19:17:51.956Z,40.42
2023-01-29T19:20:18.646Z,28.00
2023-01-29T19:22:45.218Z,26.38
2023-01-29T19:25:12.843Z,26.75
2023-01-29T19:27:39.317Z,23.63
2023-01-29T19:30:06.855Z,25.90
2023-01-29T19:32:33.585Z,27.52
2023-01-29T19:35:00.071Z,26.33
2023-01-29T19:37:26.797Z,26.63
2023-01-29T19:39:53.859Z,28.33
2023-01-29T19:42:21.032Z,27.38
2023-01-29T19:44:47.814Z,28.00
2023-01-29T19:47:14.454Z,26.23
2023-01-29T19:49:40.979Z,27.10
2023-01-29T19:52:15.092Z,26.42
2023-01-29T19:54:46.121Z,28.67
2023-01-29T19:57:12.613Z,27.40
2023-01-29T19:59:39.115Z,27.95
2023-01-29T20:02:05.582Z,26.30
2023-01-29T20:04:32.432Z,29.92
2023-01-29T20:06:59.490Z,28.45
2023-01-29T20:09:26.059Z,28.58
2023-01-29T20:11:52.531Z,27.85
2023-01-29T20:14:19.105Z,26.73
2023-01-29T20:16:45.549Z,27.65
2023-01-29T20:19:14.562Z,25.05
2023-01-29T20:21:41.927Z,31.45
2023-01-29T20:24:11.952Z,27.95
2023-01-29T20:26:38.409Z,27.58
2023-01-29T20:29:04.948Z,27.02
2023-01-29T20:31:31.376Z,26.90
2023-01-29T20:33:58.173Z,32.53
2023-01-29T20:36:24.628Z,27.98
2023-01-29T20:38:51.384Z,27.38
2023-01-29T20:41:18.530Z,27.77
2023-01-29T20:43:45.640Z,25.38
2023-01-29T20:46:12.356Z,25.45
2023-01-29T20:48:39.405Z,26.58
2023-01-29T20:51:07.996Z,26.45
2023-01-29T20:53:34.536Z,23.80
2023-01-29T20:56:03.950Z,24.40
2023-01-29T20:58:30.845Z,23.00
2023-01-29T21:00:58.030Z,27.10
2023-01-29T21:03:24.692Z,23.70
2023-01-29T21:05:51.741Z,20.50
2023-01-29T21:08:18.251Z,22.85
2023-01-29T21:10:45.439Z,21.73
2023-01-29T21:13:12.395Z,21.98
2023-01-29T21:15:38.887Z,21.13
2023-01-29T21:18:06.120Z,20.75
2023-01-29T21:20:32.871Z,18.13
2023-01-29T21:22:59.394Z,20.38
2023-01-29T21:25:25.921Z,20.73
2023-01-29T21:27:52.360Z,19.92
2023-01-29T21:30:19.401Z,34.08
2023-01-29T21:32:46.114Z,19.85
2023-01-29T21:35:12.631Z,18.88
2023-01-29T21:37:39.130Z,19.48
2023-01-29T21:40:06.265Z,20.35
2023-01-29T21:42:51.234Z,20.77
2023-01-29T21:45:17.856Z,19.70
2023-01-29T21:47:44.544Z,18.23
2023-01-29T21:50:11.531Z,19.40
2023-01-29T21:52:38.230Z,19.33
2023-01-29T21:55:04.924Z,18.75
2023-01-29T21:57:31.494Z,18.85
2023-01-29T21:59:59.383Z,17.88
2023-01-29T22:02:30.954Z,17.80
2023-01-29T22:05:16.424Z,18.27
2023-01-29T22:07:44.580Z,15.63
2023-01-29T22:10:12.244Z,17.92
2023-01-29T22:12:39.161Z,16.25
2023-01-29T22:15:06.073Z,15.95
2023-01-29T22:17:32.524Z,15.80
2023-01-29T22:19:58.974Z,15.68
2023-01-29T22:22:26.159Z,15.13
2023-01-29T22:24:54.900Z,14.57
2023-01-29T22:27:21.359Z,15.63
2023-01-29T22:29:47.809Z,14.00
2023-01-29T22:32:14.411Z,14.15
2023-01-29T22:34:40.907Z,14.32
2023-01-29T22:37:07.410Z,13.68
2023-01-29T22:39:33.851Z,13.25
2023-01-29T22:42:00.384Z,14.85
2023-01-29T22:44:26.860Z,14.00
2023-01-29T22:46:53.386Z,14.05
2023-01-29T22:49:19.831Z,14.30
2023-01-29T22:51:47.180Z,14.43
2023-01-29T22:54:15.522Z,14.05
2023-01-29T22:56:42.037Z,14.25
2023-01-29T22:59:09.627Z,14.35
2023-01-29T23:01:36.082Z,14.00
2023-01-29T23:04:02.624Z,13.15
2023-01-29T23:06:29.062Z,13.68
2023-01-29T23:08:55.584Z,11.50
2023-01-29T23:11:23.635Z,13.60
2023-01-29T23:13:52.103Z,12.15
2023-01-29T23:16:20.015Z,12.75
2023-01-29T23:18:49.462Z,12.73
2023-01-29T23:21:15.935Z,13.32
2023-01-29T23:23:44.894Z,11.50
2023-01-29T23:26:30.928Z,12.93
2023-01-29T23:28:57.417Z,12.75
2023-01-29T23:31:23.877Z,13.88
2023-01-29T23:33:50.542Z,12.20
2023-01-29T23:36:17.223Z,12.48
2023-01-29T23:38:43.713Z,13.45
2023-01-29T23:41:10.150Z,12.38
2023-01-29T23:43:36.679Z,12.32
2023-01-29T23:46:03.164Z,12.75
2023-01-29T23:48:29.663Z,12.70
2023-01-29T23:50:56.210Z,11.82
2023-01-29T23:53:22.782Z,11.80
2023-01-29T23:55:59.665Z,13.02
2023-01-29T23:58:26.483Z,11.23
